sensor_id;sensor_type;location;lat;lon;timestamp;pressure;altitude;pressure_sealevel;temperature
69545;BMP180;56766;52.260;20.746;2023-09-18T00:00:31;100635.20;;;16.80
69545;BMP180;56766;52.260;20.746;2023-09-18T00:03:21;100633.40;;;16.70
69545;BMP180;56766;52.260;20.746;2023-09-18T00:05:52;100629.00;;;16.60
69545;BMP180;56766;52.260;20.746;2023-09-18T00:08:19;100627.20;;;16.56
69545;BMP180;56766;52.260;20.746;2023-09-18T00:10:54;100629.60;;;16.50
69545;BMP180;56766;52.260;20.746;2023-09-18T00:13:22;100633.40;;;16.40
69545;BMP180;56766;52.260;20.746;2023-09-18T00:15:54;100638.00;;;16.38
69545;BMP180;56766;52.260;20.746;2023-09-18T00:18:20;100634.40;;;16.30
69545;BMP180;56766;52.260;20.746;2023-09-18T00:20:47;100632.40;;;16.24
69545;BMP180;56766;52.260;20.746;2023-09-18T00:23:15;100632.20;;;16.20
69545;BMP180;56766;52.260;20.746;2023-09-18T00:25:42;100628.40;;;16.12
69545;BMP180;56766;52.260;20.746;2023-09-18T00:28:09;100632.80;;;16.10
69545;BMP180;56766;52.260;20.746;2023-09-18T00:30:42;100631.80;;;16.00
69545;BMP180;56766;52.260;20.746;2023-09-18T00:33:09;100632.40;;;16.00
69545;BMP180;56766;52.260;20.746;2023-09-18T00:35:36;100633.20;;;15.90
69545;BMP180;56766;52.260;20.746;2023-09-18T00:38:03;100638.20;;;15.90
69545;BMP180;56766;52.260;20.746;2023-09-18T00:40:30;100632.40;;;15.80
69545;BMP180;56766;52.260;20.746;2023-09-18T00:42:56;100632.00;;;15.80
69545;BMP180;56766;52.260;20.746;2023-09-18T00:45:23;100638.00;;;15.70
69545;BMP180;56766;52.260;20.746;2023-09-18T00:47:50;100640.40;;;15.70
69545;BMP180;56766;52.260;20.746;2023-09-18T00:50:17;100631.80;;;15.70
69545;BMP180;56766;52.260;20.746;2023-09-18T00:52:44;100627.20;;;15.60
69545;BMP180;56766;52.260;20.746;2023-09-18T00:55:11;100631.20;;;15.60
69545;BMP180;56766;52.260;20.746;2023-09-18T00:57:40;100632.80;;;15.50
69545;BMP180;56766;52.260;20.746;2023-09-18T01:00:11;100634.40;;;15.50
69545;BMP180;56766;52.260;20.746;2023-09-18T01:02:45;100630.80;;;15.44
69545;BMP180;56766;52.260;20.746;2023-09-18T01:05:11;100625.80;;;15.40
69545;BMP180;56766;52.260;20.746;2023-09-18T01:07:38;100627.20;;;15.40
69545;BMP180;56766;52.260;20.746;2023-09-18T01:10:05;100626.20;;;15.40
69545;BMP180;56766;52.260;20.746;2023-09-18T01:13:08;100625.60;;;15.30
69545;BMP180;56766;52.260;20.746;2023-09-18T01:15:54;100627.40;;;15.30
69545;BMP180;56766;52.260;20.746;2023-09-18T01:18:21;100623.00;;;15.30
69545;BMP180;56766;52.260;20.746;2023-09-18T01:20:47;100626.00;;;15.20
69545;BMP180;56766;52.260;20.746;2023-09-18T01:23:14;100631.00;;;15.20
69545;BMP180;56766;52.260;20.746;2023-09-18T01:25:41;100625.80;;;15.20
69545;BMP180;56766;52.260;20.746;2023-09-18T01:28:07;100631.20;;;15.12
69545;BMP180;56766;52.260;20.746;2023-09-18T01:30:34;100627.40;;;15.10
69545;BMP180;56766;52.260;20.746;2023-09-18T01:33:03;100627.60;;;15.10
69545;BMP180;56766;52.260;20.746;2023-09-18T01:35:31;100626.20;;;15.10
69545;BMP180;56766;52.260;20.746;2023-09-18T01:38:00;100631.20;;;15.02
69545;BMP180;56766;52.260;20.746;2023-09-18T01:40:28;100628.00;;;15.00
69545;BMP180;56766;52.260;20.746;2023-09-18T01:42:56;100629.20;;;15.00
69545;BMP180;56766;52.260;20.746;2023-09-18T01:45:23;100626.40;;;15.00
69545;BMP180;56766;52.260;20.746;2023-09-18T01:47:50;100625.60;;;15.00
69545;BMP180;56766;52.260;20.746;2023-09-18T01:50:17;100622.20;;;15.00
69545;BMP180;56766;52.260;20.746;2023-09-18T01:52:43;100618.60;;;15.00
69545;BMP180;56766;52.260;20.746;2023-09-18T01:55:12;100617.40;;;15.00
69545;BMP180;56766;52.260;20.746;2023-09-18T01:57:38;100614.60;;;15.00
69545;BMP180;56766;52.260;20.746;2023-09-18T02:00:06;100620.20;;;15.10
69545;BMP180;56766;52.260;20.746;2023-09-18T02:02:35;100617.00;;;15.10
69545;BMP180;56766;52.260;20.746;2023-09-18T02:05:03;100615.00;;;15.10
69545;BMP180;56766;52.260;20.746;2023-09-18T02:07:30;100610.20;;;15.10
69545;BMP180;56766;52.260;20.746;2023-09-18T02:09:58;100613.00;;;15.20
69545;BMP180;56766;52.260;20.746;2023-09-18T02:12:24;100612.40;;;15.20
69545;BMP180;56766;52.260;20.746;2023-09-18T02:14:51;100613.20;;;15.30
69545;BMP180;56766;52.260;20.746;2023-09-18T02:17:18;100609.20;;;15.30
69545;BMP180;56766;52.260;20.746;2023-09-18T02:19:46;100609.80;;;15.40
69545;BMP180;56766;52.260;20.746;2023-09-18T02:22:13;100604.80;;;15.40
69545;BMP180;56766;52.260;20.746;2023-09-18T02:24:40;100603.80;;;15.50
69545;BMP180;56766;52.260;20.746;2023-09-18T02:27:07;100603.20;;;15.50
69545;BMP180;56766;52.260;20.746;2023-09-18T02:29:33;100597.80;;;15.60
69545;BMP180;56766;52.260;20.746;2023-09-18T02:32:00;100596.60;;;15.60
69545;BMP180;56766;52.260;20.746;2023-09-18T02:34:27;100590.00;;;15.64
69545;BMP180;56766;52.260;20.746;2023-09-18T02:36:53;100588.00;;;15.70
69545;BMP180;56766;52.260;20.746;2023-09-18T02:39:20;100591.00;;;15.70
69545;BMP180;56766;52.260;20.746;2023-09-18T02:41:47;100592.20;;;15.80
69545;BMP180;56766;52.260;20.746;2023-09-18T02:44:14;100593.80;;;15.80
69545;BMP180;56766;52.260;20.746;2023-09-18T02:46:42;100593.20;;;15.80
69545;BMP180;56766;52.260;20.746;2023-09-18T02:49:09;100591.20;;;15.90
69545;BMP180;56766;52.260;20.746;2023-09-18T02:51:36;100587.20;;;15.90
69545;BMP180;56766;52.260;20.746;2023-09-18T02:54:03;100585.80;;;15.90
69545;BMP180;56766;52.260;20.746;2023-09-18T02:56:30;100584.60;;;16.00
69545;BMP180;56766;52.260;20.746;2023-09-18T02:58:57;100578.80;;;16.00
69545;BMP180;56766;52.260;20.746;2023-09-18T03:01:23;100579.40;;;16.00
69545;BMP180;56766;52.260;20.746;2023-09-18T03:03:50;100574.60;;;16.02
69545;BMP180;56766;52.260;20.746;2023-09-18T03:06:17;100576.60;;;16.10
69545;BMP180;56766;52.260;20.746;2023-09-18T03:08:43;100576.00;;;16.10
69545;BMP180;56766;52.260;20.746;2023-09-18T03:11:14;100574.60;;;16.10
69545;BMP180;56766;52.260;20.746;2023-09-18T03:13:46;100576.40;;;16.20
69545;BMP180;56766;52.260;20.746;2023-09-18T03:16:14;100578.80;;;16.20
69545;BMP180;56766;52.260;20.746;2023-09-18T03:18:41;100575.80;;;16.20
69545;BMP180;56766;52.260;20.746;2023-09-18T03:21:07;100577.40;;;16.20
69545;BMP180;56766;52.260;20.746;2023-09-18T03:23:34;100573.80;;;16.20
69545;BMP180;56766;52.260;20.746;2023-09-18T03:26:01;100576.80;;;16.30
69545;BMP180;56766;52.260;20.746;2023-09-18T03:28:28;100576.80;;;16.30
69545;BMP180;56766;52.260;20.746;2023-09-18T03:30:54;100579.80;;;16.30
69545;BMP180;56766;52.260;20.746;2023-09-18T03:33:21;100578.00;;;16.30
69545;BMP180;56766;52.260;20.746;2023-09-18T03:35:50;100578.60;;;16.30
69545;BMP180;56766;52.260;20.746;2023-09-18T03:38:17;100580.40;;;16.30
69545;BMP180;56766;52.260;20.746;2023-09-18T03:40:44;100576.80;;;16.32
69545;BMP180;56766;52.260;20.746;2023-09-18T03:43:11;100575.80;;;16.34
69545;BMP180;56766;52.260;20.746;2023-09-18T03:45:41;100582.00;;;16.38
69545;BMP180;56766;52.260;20.746;2023-09-18T03:48:07;100575.60;;;16.40
69545;BMP180;56766;52.260;20.746;2023-09-18T03:50:34;100575.60;;;16.36
69545;BMP180;56766;52.260;20.746;2023-09-18T03:53:01;100571.60;;;16.40
69545;BMP180;56766;52.260;20.746;2023-09-18T03:55:27;100571.20;;;16.40
69545;BMP180;56766;52.260;20.746;2023-09-18T03:57:54;100572.40;;;16.40
69545;BMP180;56766;52.260;20.746;2023-09-18T04:00:22;100565.40;;;16.40
69545;BMP180;56766;52.260;20.746;2023-09-18T04:02:49;100565.60;;;16.40
69545;BMP180;56766;52.260;20.746;2023-09-18T04:05:16;100564.80;;;16.40
69545;BMP180;56766;52.260;20.746;2023-09-18T04:07:43;100563.20;;;16.40
69545;BMP180;56766;52.260;20.746;2023-09-18T04:10:15;100559.20;;;16.40
69545;BMP180;56766;52.260;20.746;2023-09-18T04:12:46;100560.00;;;16.40
69545;BMP180;56766;52.260;20.746;2023-09-18T04:15:16;100558.20;;;16.40
69545;BMP180;56766;52.260;20.746;2023-09-18T04:17:44;100553.20;;;16.50
69545;BMP180;56766;52.260;20.746;2023-09-18T04:20:11;100558.00;;;16.50
69545;BMP180;56766;52.260;20.746;2023-09-18T04:22:45;100552.00;;;16.50
69545;BMP180;56766;52.260;20.746;2023-09-18T04:25:16;100548.20;;;16.52
69545;BMP180;56766;52.260;20.746;2023-09-18T04:27:43;100548.20;;;16.60
69545;BMP180;56766;52.260;20.746;2023-09-18T04:30:10;100547.20;;;16.60
69545;BMP180;56766;52.260;20.746;2023-09-18T04:32:38;100547.00;;;16.62
69545;BMP180;56766;52.260;20.746;2023-09-18T04:35:05;100541.80;;;16.70
69545;BMP180;56766;52.260;20.746;2023-09-18T04:37:37;100542.80;;;16.70
69545;BMP180;56766;52.260;20.746;2023-09-18T04:40:06;100548.20;;;16.76
69545;BMP180;56766;52.260;20.746;2023-09-18T04:42:36;100545.40;;;16.80
69545;BMP180;56766;52.260;20.746;2023-09-18T04:45:04;100549.00;;;16.80
69545;BMP180;56766;52.260;20.746;2023-09-18T04:47:31;100548.80;;;16.90
69545;BMP180;56766;52.260;20.746;2023-09-18T04:49:58;100548.00;;;16.90
69545;BMP180;56766;52.260;20.746;2023-09-18T04:52:25;100546.20;;;17.00
69545;BMP180;56766;52.260;20.746;2023-09-18T04:54:51;100543.40;;;17.00
69545;BMP180;56766;52.260;20.746;2023-09-18T04:57:18;100544.20;;;17.10
69545;BMP180;56766;52.260;20.746;2023-09-18T04:59:45;100540.80;;;17.10
69545;BMP180;56766;52.260;20.746;2023-09-18T05:02:11;100534.00;;;17.16
69545;BMP180;56766;52.260;20.746;2023-09-18T05:04:38;100537.00;;;17.20
69545;BMP180;56766;52.260;20.746;2023-09-18T05:07:04;100538.40;;;17.30
69545;BMP180;56766;52.260;20.746;2023-09-18T05:09:31;100538.40;;;17.30
69545;BMP180;56766;52.260;20.746;2023-09-18T05:11:59;100531.80;;;17.36
69545;BMP180;56766;52.260;20.746;2023-09-18T05:14:25;100534.00;;;17.40
69545;BMP180;56766;52.260;20.746;2023-09-18T05:16:52;100530.00;;;17.50
69545;BMP180;56766;52.260;20.746;2023-09-18T05:19:19;100528.00;;;17.50
69545;BMP180;56766;52.260;20.746;2023-09-18T05:21:45;100526.40;;;17.58
69545;BMP180;56766;52.260;20.746;2023-09-18T05:24:13;100523.40;;;17.60
69545;BMP180;56766;52.260;20.746;2023-09-18T05:26:39;100524.20;;;17.70
69545;BMP180;56766;52.260;20.746;2023-09-18T05:29:06;100518.40;;;17.74
69545;BMP180;56766;52.260;20.746;2023-09-18T05:31:32;100512.80;;;17.80
69545;BMP180;56766;52.260;20.746;2023-09-18T05:33:59;100510.40;;;17.90
69545;BMP180;56766;52.260;20.746;2023-09-18T05:36:26;100510.80;;;18.00
69545;BMP180;56766;52.260;20.746;2023-09-18T05:38:53;100510.60;;;18.00
69545;BMP180;56766;52.260;20.746;2023-09-18T05:41:19;100508.40;;;18.10
69545;BMP180;56766;52.260;20.746;2023-09-18T05:43:47;100500.80;;;18.10
69545;BMP180;56766;52.260;20.746;2023-09-18T05:46:14;100505.00;;;18.14
69545;BMP180;56766;52.260;20.746;2023-09-18T05:48:40;100499.40;;;18.20
69545;BMP180;56766;52.260;20.746;2023-09-18T05:51:08;100502.20;;;18.20
69545;BMP180;56766;52.260;20.746;2023-09-18T05:53:35;100501.40;;;18.30
69545;BMP180;56766;52.260;20.746;2023-09-18T05:56:02;100498.40;;;18.30
69545;BMP180;56766;52.260;20.746;2023-09-18T05:58:33;100494.80;;;18.30
69545;BMP180;56766;52.260;20.746;2023-09-18T06:01:01;100497.40;;;18.30
69545;BMP180;56766;52.260;20.746;2023-09-18T06:03:27;100496.80;;;18.30
69545;BMP180;56766;52.260;20.746;2023-09-18T06:05:56;100496.20;;;18.40
69545;BMP180;56766;52.260;20.746;2023-09-18T06:08:23;100498.00;;;18.44
69545;BMP180;56766;52.260;20.746;2023-09-18T06:10:52;100495.40;;;18.50
69545;BMP180;56766;52.260;20.746;2023-09-18T06:13:19;100496.40;;;18.60
69545;BMP180;56766;52.260;20.746;2023-09-18T06:15:45;100493.80;;;18.70
69545;BMP180;56766;52.260;20.746;2023-09-18T06:18:12;100498.40;;;18.70
69545;BMP180;56766;52.260;20.746;2023-09-18T06:20:40;100497.40;;;18.80
69545;BMP180;56766;52.260;20.746;2023-09-18T06:23:08;100494.40;;;18.90
69545;BMP180;56766;52.260;20.746;2023-09-18T06:25:34;100494.80;;;19.02
69545;BMP180;56766;52.260;20.746;2023-09-18T06:28:01;100500.20;;;19.20
69545;BMP180;56766;52.260;20.746;2023-09-18T06:30:31;100494.60;;;19.30
69545;BMP180;56766;52.260;20.746;2023-09-18T06:33:00;100496.40;;;19.40
69545;BMP180;56766;52.260;20.746;2023-09-18T06:35:27;100494.60;;;19.60
69545;BMP180;56766;52.260;20.746;2023-09-18T06:37:54;100497.40;;;19.70
69545;BMP180;56766;52.260;20.746;2023-09-18T06:40:25;100491.40;;;19.78
69545;BMP180;56766;52.260;20.746;2023-09-18T06:42:58;100484.00;;;19.90
69545;BMP180;56766;52.260;20.746;2023-09-18T06:45:26;100486.20;;;20.00
69545;BMP180;56766;52.260;20.746;2023-09-18T06:47:54;100484.80;;;20.20
69545;BMP180;56766;52.260;20.746;2023-09-18T06:50:21;100485.00;;;20.30
69545;BMP180;56766;52.260;20.746;2023-09-18T06:52:47;100485.60;;;20.44
69545;BMP180;56766;52.260;20.746;2023-09-18T06:55:15;100485.80;;;20.60
69545;BMP180;56766;52.260;20.746;2023-09-18T06:57:43;100485.60;;;20.80
69545;BMP180;56766;52.260;20.746;2023-09-18T07:00:11;100483.80;;;20.94
69545;BMP180;56766;52.260;20.746;2023-09-18T07:02:41;100485.20;;;21.10
69545;BMP180;56766;52.260;20.746;2023-09-18T07:05:07;100484.00;;;21.28
69545;BMP180;56766;52.260;20.746;2023-09-18T07:07:35;100485.00;;;21.40
69545;BMP180;56766;52.260;20.746;2023-09-18T07:10:02;100482.20;;;21.60
69545;BMP180;56766;52.260;20.746;2023-09-18T07:12:29;100481.60;;;21.70
69545;BMP180;56766;52.260;20.746;2023-09-18T07:14:58;100484.80;;;21.80
69545;BMP180;56766;52.260;20.746;2023-09-18T07:17:25;100485.80;;;22.00
69545;BMP180;56766;52.260;20.746;2023-09-18T07:19:51;100481.60;;;22.14
69545;BMP180;56766;52.260;20.746;2023-09-18T07:22:18;100478.40;;;22.30
69545;BMP180;56766;52.260;20.746;2023-09-18T07:24:45;100476.00;;;22.50
69545;BMP180;56766;52.260;20.746;2023-09-18T07:27:14;100470.80;;;22.62
69545;BMP180;56766;52.260;20.746;2023-09-18T07:29:41;100471.20;;;22.80
69545;BMP180;56766;52.260;20.746;2023-09-18T07:32:08;100474.20;;;23.00
69545;BMP180;56766;52.260;20.746;2023-09-18T07:34:35;100474.00;;;23.20
69545;BMP180;56766;52.260;20.746;2023-09-18T07:37:02;100474.80;;;23.40
69545;BMP180;56766;52.260;20.746;2023-09-18T07:39:29;100471.60;;;23.60
69545;BMP180;56766;52.260;20.746;2023-09-18T07:41:56;100465.40;;;23.70
69545;BMP180;56766;52.260;20.746;2023-09-18T07:44:23;100463.40;;;23.90
69545;BMP180;56766;52.260;20.746;2023-09-18T07:46:49;100465.60;;;24.00
69545;BMP180;56766;52.260;20.746;2023-09-18T07:49:16;100468.00;;;24.20
69545;BMP180;56766;52.260;20.746;2023-09-18T07:51:44;100468.40;;;24.30
69545;BMP180;56766;52.260;20.746;2023-09-18T07:54:14;100469.00;;;24.50
69545;BMP180;56766;52.260;20.746;2023-09-18T07:56:42;100473.60;;;24.70
69545;BMP180;56766;52.260;20.746;2023-09-18T07:59:09;100470.20;;;24.82
69545;BMP180;56766;52.260;20.746;2023-09-18T08:01:37;100464.00;;;25.00
69545;BMP180;56766;52.260;20.746;2023-09-18T08:04:03;100460.40;;;25.10
69545;BMP180;56766;52.260;20.746;2023-09-18T08:06:31;100457.00;;;25.30
69545;BMP180;56766;52.260;20.746;2023-09-18T08:09:00;100457.20;;;25.48
69545;BMP180;56766;52.260;20.746;2023-09-18T08:11:27;100452.60;;;25.60
69545;BMP180;56766;52.260;20.746;2023-09-18T08:13:54;100449.40;;;25.72
69545;BMP180;56766;52.260;20.746;2023-09-18T08:16:21;100455.80;;;25.90
69545;BMP180;56766;52.260;20.746;2023-09-18T08:18:49;100449.40;;;25.98
69545;BMP180;56766;52.260;20.746;2023-09-18T08:21:15;100448.00;;;26.10
69545;BMP180;56766;52.260;20.746;2023-09-18T08:23:43;100449.40;;;26.20
69545;BMP180;56766;52.260;20.746;2023-09-18T08:26:11;100447.40;;;26.30
69545;BMP180;56766;52.260;20.746;2023-09-18T08:28:38;100444.60;;;26.44
69545;BMP180;56766;52.260;20.746;2023-09-18T08:31:09;100441.20;;;26.60
69545;BMP180;56766;52.260;20.746;2023-09-18T08:33:37;100439.20;;;26.70
69545;BMP180;56766;52.260;20.746;2023-09-18T08:36:04;100436.00;;;26.80
69545;BMP180;56766;52.260;20.746;2023-09-18T08:38:31;100433.80;;;26.90
69545;BMP180;56766;52.260;20.746;2023-09-18T08:40:58;100434.00;;;27.08
69545;BMP180;56766;52.260;20.746;2023-09-18T08:43:26;100427.20;;;27.10
69545;BMP180;56766;52.260;20.746;2023-09-18T08:45:55;100423.80;;;27.20
69545;BMP180;56766;52.260;20.746;2023-09-18T08:48:28;100420.80;;;27.20
69545;BMP180;56766;52.260;20.746;2023-09-18T08:51:04;100420.20;;;27.30
69545;BMP180;56766;52.260;20.746;2023-09-18T08:53:35;100416.00;;;27.40
69545;BMP180;56766;52.260;20.746;2023-09-18T08:56:05;100417.20;;;27.50
69545;BMP180;56766;52.260;20.746;2023-09-18T08:58:37;100418.00;;;27.68
69545;BMP180;56766;52.260;20.746;2023-09-18T09:01:06;100410.20;;;27.80
69545;BMP180;56766;52.260;20.746;2023-09-18T09:03:41;100415.00;;;27.90
69545;BMP180;56766;52.260;20.746;2023-09-18T09:06:09;100408.60;;;27.90
69545;BMP180;56766;52.260;20.746;2023-09-18T09:08:36;100405.20;;;28.00
69545;BMP180;56766;52.260;20.746;2023-09-18T09:11:03;100406.60;;;28.18
69545;BMP180;56766;52.260;20.746;2023-09-18T09:13:31;100402.60;;;28.20
69545;BMP180;56766;52.260;20.746;2023-09-18T09:15:59;100401.40;;;28.30
69545;BMP180;56766;52.260;20.746;2023-09-18T09:18:29;100405.40;;;28.30
69545;BMP180;56766;52.260;20.746;2023-09-18T09:21:00;100402.20;;;28.40
69545;BMP180;56766;52.260;20.746;2023-09-18T09:23:44;100400.80;;;28.50
69545;BMP180;56766;52.260;20.746;2023-09-18T09:26:17;100396.60;;;28.50
69545;BMP180;56766;52.260;20.746;2023-09-18T09:28:46;100395.40;;;28.60
69545;BMP180;56766;52.260;20.746;2023-09-18T09:31:25;100396.80;;;28.70
69545;BMP180;56766;52.260;20.746;2023-09-18T09:33:55;100391.60;;;28.78
69545;BMP180;56766;52.260;20.746;2023-09-18T09:36:25;100390.20;;;28.80
69545;BMP180;56766;52.260;20.746;2023-09-18T09:38:57;100391.20;;;28.88
69545;BMP180;56766;52.260;20.746;2023-09-18T09:41:28;100392.80;;;28.90
69545;BMP180;56766;52.260;20.746;2023-09-18T09:43:55;100388.80;;;28.90
69545;BMP180;56766;52.260;20.746;2023-09-18T09:46:22;100384.20;;;28.90
69545;BMP180;56766;52.260;20.746;2023-09-18T09:49:05;100383.80;;;28.90
69545;BMP180;56766;52.260;20.746;2023-09-18T09:51:33;100383.60;;;29.00
69545;BMP180;56766;52.260;20.746;2023-09-18T09:54:03;100377.80;;;29.06
69545;BMP180;56766;52.260;20.746;2023-09-18T09:56:44;100377.80;;;29.12
69545;BMP180;56766;52.260;20.746;2023-09-18T09:59:14;100372.20;;;29.20
69545;BMP180;56766;52.260;20.746;2023-09-18T10:01:43;100371.80;;;29.20
69545;BMP180;56766;52.260;20.746;2023-09-18T10:04:16;100369.60;;;29.30
69545;BMP180;56766;52.260;20.746;2023-09-18T10:06:52;100365.00;;;29.40
69545;BMP180;56766;52.260;20.746;2023-09-18T10:09:26;100361.80;;;29.46
69545;BMP180;56766;52.260;20.746;2023-09-18T10:11:57;100362.60;;;29.50
69545;BMP180;56766;52.260;20.746;2023-09-18T10:14:33;100363.80;;;29.60
69545;BMP180;56766;52.260;20.746;2023-09-18T10:17:22;100358.00;;;29.70
69545;BMP180;56766;52.260;20.746;2023-09-18T10:20:13;100360.40;;;29.82
69545;BMP180;56766;52.260;20.746;2023-09-18T10:22:53;100354.40;;;30.00
69545;BMP180;56766;52.260;20.746;2023-09-18T10:25:24;100351.80;;;30.14
69545;BMP180;56766;52.260;20.746;2023-09-18T10:27:52;100340.80;;;30.20
69545;BMP180;56766;52.260;20.746;2023-09-18T10:30:21;100342.60;;;30.10
69545;BMP180;56766;52.260;20.746;2023-09-18T10:32:51;100342.60;;;30.10
69545;BMP180;56766;52.260;20.746;2023-09-18T10:35:19;100337.40;;;30.00
69545;BMP180;56766;52.260;20.746;2023-09-18T10:37:49;100338.40;;;29.90
69545;BMP180;56766;52.260;20.746;2023-09-18T10:40:20;100334.40;;;29.80
69545;BMP180;56766;52.260;20.746;2023-09-18T10:42:50;100332.20;;;29.70
69545;BMP180;56766;52.260;20.746;2023-09-18T10:45:17;100329.40;;;29.90
69545;BMP180;56766;52.260;20.746;2023-09-18T10:47:47;100329.40;;;30.00
69545;BMP180;56766;52.260;20.746;2023-09-18T10:50:26;100326.20;;;30.22
69545;BMP180;56766;52.260;20.746;2023-09-18T10:52:57;100324.20;;;30.30
69545;BMP180;56766;52.260;20.746;2023-09-18T10:55:25;100319.20;;;30.30
69545;BMP180;56766;52.260;20.746;2023-09-18T10:57:57;100321.40;;;30.30
69545;BMP180;56766;52.260;20.746;2023-09-18T11:00:26;100317.40;;;30.30
69545;BMP180;56766;52.260;20.746;2023-09-18T11:03:12;100318.80;;;30.14
69545;BMP180;56766;52.260;20.746;2023-09-18T11:05:39;100317.40;;;29.80
69545;BMP180;56766;52.260;20.746;2023-09-18T11:11:02;100299.00;;;29.38
69545;BMP180;56766;52.260;20.746;2023-09-18T11:13:44;100296.20;;;29.50
69545;BMP180;56766;52.260;20.746;2023-09-18T11:19:09;100294.80;;;29.50
69545;BMP180;56766;52.260;20.746;2023-09-18T11:21:38;100296.00;;;29.50
69545;BMP180;56766;52.260;20.746;2023-09-18T11:24:20;100292.40;;;29.80
69545;BMP180;56766;52.260;20.746;2023-09-18T11:26:51;100286.60;;;30.10
69545;BMP180;56766;52.260;20.746;2023-09-18T11:29:23;100289.20;;;30.30
69545;BMP180;56766;52.260;20.746;2023-09-18T11:31:54;100287.00;;;30.50
69545;BMP180;56766;52.260;20.746;2023-09-18T11:34:30;100280.80;;;30.70
69545;BMP180;56766;52.260;20.746;2023-09-18T11:37:23;100287.00;;;30.70
69545;BMP180;56766;52.260;20.746;2023-09-18T11:39:52;100291.80;;;30.70
69545;BMP180;56766;52.260;20.746;2023-09-18T11:42:20;100286.00;;;30.70
69545;BMP180;56766;52.260;20.746;2023-09-18T11:44:56;100279.20;;;30.90
69545;BMP180;56766;52.260;20.746;2023-09-18T11:47:26;100280.40;;;31.06
69545;BMP180;56766;52.260;20.746;2023-09-18T11:49:57;100281.40;;;30.88
69545;BMP180;56766;52.260;20.746;2023-09-18T11:52:28;100275.60;;;30.70
69545;BMP180;56766;52.260;20.746;2023-09-18T11:54:59;100285.80;;;30.74
69545;BMP180;56766;52.260;20.746;2023-09-18T11:57:27;100278.20;;;30.80
69545;BMP180;56766;52.260;20.746;2023-09-18T11:59:55;100276.80;;;30.70
69545;BMP180;56766;52.260;20.746;2023-09-18T12:02:31;100270.00;;;30.60
69545;BMP180;56766;52.260;20.746;2023-09-18T12:05:15;100275.40;;;30.20
69545;BMP180;56766;52.260;20.746;2023-09-18T12:07:45;100272.20;;;30.00
69545;BMP180;56766;52.260;20.746;2023-09-18T12:10:15;100263.60;;;30.00
69545;BMP180;56766;52.260;20.746;2023-09-18T12:12:47;100271.20;;;30.10
69545;BMP180;56766;52.260;20.746;2023-09-18T12:15:18;100266.00;;;30.20
69545;BMP180;56766;52.260;20.746;2023-09-18T12:17:46;100259.40;;;30.30
69545;BMP180;56766;52.260;20.746;2023-09-18T12:20:18;100264.00;;;30.04
69545;BMP180;56766;52.260;20.746;2023-09-18T12:22:50;100263.40;;;29.74
69545;BMP180;56766;52.260;20.746;2023-09-18T12:25:17;100257.80;;;29.60
69545;BMP180;56766;52.260;20.746;2023-09-18T12:27:45;100256.20;;;29.50
69545;BMP180;56766;52.260;20.746;2023-09-18T12:30:15;100257.00;;;29.16
69545;BMP180;56766;52.260;20.746;2023-09-18T12:32:47;100253.80;;;29.10
69545;BMP180;56766;52.260;20.746;2023-09-18T12:35:17;100251.40;;;29.30
69545;BMP180;56766;52.260;20.746;2023-09-18T12:37:46;100246.80;;;29.44
69545;BMP180;56766;52.260;20.746;2023-09-18T12:40:25;100248.00;;;29.60
69545;BMP180;56766;52.260;20.746;2023-09-18T12:42:56;100243.00;;;29.72
69545;BMP180;56766;52.260;20.746;2023-09-18T12:45:28;100246.40;;;29.78
69545;BMP180;56766;52.260;20.746;2023-09-18T12:47:57;100240.40;;;29.50
69545;BMP180;56766;52.260;20.746;2023-09-18T12:50:26;100245.80;;;29.30
69545;BMP180;56766;52.260;20.746;2023-09-18T12:52:52;100241.80;;;29.10
69545;BMP180;56766;52.260;20.746;2023-09-18T12:55:25;100238.60;;;29.10
69545;BMP180;56766;52.260;20.746;2023-09-18T12:57:53;100233.40;;;29.20
69545;BMP180;56766;52.260;20.746;2023-09-18T13:00:22;100224.60;;;29.18
69545;BMP180;56766;52.260;20.746;2023-09-18T13:02:50;100223.60;;;29.22
69545;BMP180;56766;52.260;20.746;2023-09-18T13:05:24;100220.40;;;29.30
69545;BMP180;56766;52.260;20.746;2023-09-18T13:08:05;100218.00;;;29.40
69545;BMP180;56766;52.260;20.746;2023-09-18T13:10:47;100210.00;;;29.50
69545;BMP180;56766;52.260;20.746;2023-09-18T13:13:19;100203.00;;;29.50
69545;BMP180;56766;52.260;20.746;2023-09-18T13:15:48;100198.60;;;29.50
69545;BMP180;56766;52.260;20.746;2023-09-18T13:18:16;100195.80;;;29.40
69545;BMP180;56766;52.260;20.746;2023-09-18T13:20:44;100194.40;;;29.40
69545;BMP180;56766;52.260;20.746;2023-09-18T13:23:13;100190.80;;;29.50
69545;BMP180;56766;52.260;20.746;2023-09-18T13:25:40;100187.20;;;29.60
69545;BMP180;56766;52.260;20.746;2023-09-18T13:28:13;100180.60;;;29.60
69545;BMP180;56766;52.260;20.746;2023-09-18T13:30:42;100179.20;;;29.60
69545;BMP180;56766;52.260;20.746;2023-09-18T13:33:15;100168.80;;;29.60
69545;BMP180;56766;52.260;20.746;2023-09-18T13:35:45;100171.40;;;29.60
69545;BMP180;56766;52.260;20.746;2023-09-18T13:38:12;100166.60;;;29.64
69545;BMP180;56766;52.260;20.746;2023-09-18T13:40:41;100160.60;;;29.70
69545;BMP180;56766;52.260;20.746;2023-09-18T13:43:09;100163.20;;;29.80
69545;BMP180;56766;52.260;20.746;2023-09-18T13:45:37;100159.20;;;29.70
69545;BMP180;56766;52.260;20.746;2023-09-18T13:48:05;100150.00;;;29.60
69545;BMP180;56766;52.260;20.746;2023-09-18T13:50:35;100144.60;;;29.50
69545;BMP180;56766;52.260;20.746;2023-09-18T13:53:03;100143.60;;;29.38
69545;BMP180;56766;52.260;20.746;2023-09-18T13:55:34;100137.60;;;29.30
69545;BMP180;56766;52.260;20.746;2023-09-18T13:58:02;100143.40;;;29.30
69545;BMP180;56766;52.260;20.746;2023-09-18T14:00:31;100141.60;;;29.20